createdAt,value
2018-09-28T00:01:27.278Z,31.70
2018-09-28T00:03:55.870Z,32.10
2018-09-28T00:06:24.372Z,31.20
2018-09-28T00:08:53.514Z,30.40
2018-09-28T00:11:22.222Z,30.20
2018-09-28T00:13:50.710Z,30.47
2018-09-28T00:16:19.561Z,31.40
2018-09-28T00:18:48.139Z,32.13
2018-09-28T00:21:17.305Z,32.73
2018-09-28T00:23:45.863Z,32.30
2018-09-28T00:26:15.240Z,34.77
2018-09-28T00:28:43.735Z,33.40
2018-09-28T00:31:12.262Z,33.13
2018-09-28T00:33:40.762Z,33.40
2018-09-28T00:36:09.307Z,33.70
2018-09-28T00:38:38.115Z,33.30
2018-09-28T00:41:06.859Z,34.50
2018-09-28T00:43:35.375Z,33.63
2018-09-28T00:46:03.897Z,32.10
2018-09-28T00:48:32.441Z,34.27
2018-09-28T00:51:01.282Z,37.67
2018-09-28T00:53:29.906Z,34.47
2018-09-28T00:55:58.475Z,34.87
2018-09-28T00:58:27.121Z,35.43
2018-09-28T01:00:55.647Z,35.67
2018-09-28T01:03:24.691Z,36.57
2018-09-28T01:05:53.228Z,35.20
2018-09-28T01:08:21.811Z,35.87
2018-09-28T01:10:50.310Z,36.80
2018-09-28T01:13:19.147Z,38.53
2018-09-28T01:15:48.774Z,37.70
2018-09-28T01:18:17.431Z,39.60
2018-09-28T01:20:45.951Z,39.93
2018-09-28T01:23:16.698Z,39.17
2018-09-28T01:25:45.290Z,38.90
2018-09-28T01:28:13.806Z,38.27
2018-09-28T01:30:42.305Z,39.50
2018-09-28T01:33:10.874Z,37.90
2018-09-28T01:35:39.415Z,39.60
2018-09-28T01:38:08.055Z,38.33
2018-09-28T01:40:36.579Z,39.07
2018-09-28T01:43:05.133Z,38.63
2018-09-28T01:45:33.698Z,38.70
2018-09-28T01:48:02.260Z,41.47
2018-09-28T01:50:30.842Z,37.13
2018-09-28T01:52:59.469Z,41.73
2018-09-28T01:55:28.016Z,41.73
2018-09-28T01:57:56.594Z,41.93
2018-09-28T02:00:25.143Z,44.97
2018-09-28T02:02:53.751Z,45.20
2018-09-28T02:05:22.291Z,43.70
2018-09-28T02:07:50.787Z,42.23
2018-09-28T02:10:19.359Z,43.13
2018-09-28T02:12:47.859Z,44.10
2018-09-28T02:15:16.375Z,44.80
2018-09-28T02:17:44.978Z,41.43
2018-09-28T02:20:13.477Z,44.00
2018-09-28T02:22:42.030Z,44.17
2018-09-28T02:25:10.695Z,44.00
2018-09-28T02:27:39.177Z,43.83
2018-09-28T02:30:08.112Z,44.90
2018-09-28T02:32:36.589Z,45.30
2018-09-28T02:35:05.503Z,41.37
2018-09-28T02:37:34.055Z,40.97
2018-09-28T02:40:02.611Z,42.07
2018-09-28T02:42:34.046Z,43.60
2018-09-28T02:45:02.818Z,40.60
2018-09-28T02:47:31.351Z,44.17
2018-09-28T02:49:59.875Z,41.73
2018-09-28T02:52:28.467Z,41.07
2018-09-28T02:54:57.021Z,39.50
2018-09-28T02:57:25.564Z,36.97
2018-09-28T02:59:56.989Z,40.47
2018-09-28T03:02:25.499Z,37.00
2018-09-28T03:04:54.069Z,31.60
2018-09-28T03:07:23.575Z,31.93
2018-09-28T03:09:52.111Z,33.17
2018-09-28T03:12:20.753Z,34.30
2018-09-28T03:14:49.227Z,33.83
2018-09-28T03:17:17.719Z,30.90
2018-09-28T03:19:46.241Z,31.87
2018-09-28T03:22:14.743Z,28.20
2018-09-28T03:24:43.285Z,28.53
2018-09-28T03:27:11.892Z,23.43
2018-09-28T03:29:40.417Z,24.40
2018-09-28T03:32:08.971Z,17.90
2018-09-28T03:34:37.499Z,16.40
2018-09-28T03:37:06.066Z,12.60
2018-09-28T03:39:34.562Z,11.80
2018-09-28T03:42:03.103Z,8.07
2018-09-28T03:44:31.755Z,5.70
2018-09-28T03:47:00.357Z,4.00
2018-09-28T03:49:29.022Z,4.40
2018-09-28T03:51:57.540Z,3.97
2018-09-28T03:54:26.050Z,2.40
2018-09-28T03:56:54.606Z,4.40
2018-09-28T03:59:23.376Z,3.13
2018-09-28T04:01:52.002Z,1.53
2018-09-28T04:04:20.518Z,2.37
2018-09-28T04:06:49.136Z,2.70
2018-09-28T04:09:17.712Z,2.20
2018-09-28T04:11:46.242Z,2.60
2018-09-28T04:14:14.805Z,2.47
2018-09-28T04:16:43.428Z,3.00
2018-09-28T04:19:11.942Z,2.93
2018-09-28T04:21:44.123Z,2.03
2018-09-28T04:24:12.803Z,2.33
2018-09-28T04:26:41.411Z,2.30
2018-09-28T04:29:10.288Z,2.90
2018-09-28T04:31:38.810Z,2.50
2018-09-28T04:34:07.411Z,1.60
2018-09-28T04:36:35.926Z,2.10
2018-09-28T04:39:05.747Z,2.10
2018-09-28T04:41:34.293Z,2.00
2018-09-28T04:44:02.850Z,2.00
2018-09-28T04:46:31.354Z,2.00
2018-09-28T04:48:59.965Z,2.20
2018-09-28T04:51:29.286Z,2.00
2018-09-28T04:53:57.972Z,2.57
2018-09-28T04:56:26.538Z,2.37
2018-09-28T04:58:55.082Z,1.43
2018-09-28T05:01:24.575Z,1.13
2018-09-28T05:03:54.083Z,1.80
2018-09-28T05:06:24.003Z,1.93
2018-09-28T05:08:52.663Z,2.50
2018-09-28T05:11:21.166Z,2.63
2018-09-28T05:13:49.712Z,2.80
2018-09-28T05:16:18.227Z,2.50
2018-09-28T05:18:46.755Z,2.00
2018-09-28T05:21:15.287Z,2.27
2018-09-28T05:23:43.871Z,2.57
2018-09-28T05:26:12.358Z,1.63
2018-09-28T05:28:40.879Z,2.00
2018-09-28T05:31:09.477Z,2.00
2018-09-28T05:33:38.046Z,2.77
2018-09-28T05:36:06.539Z,2.30
2018-09-28T05:38:35.027Z,1.97
2018-09-28T05:41:03.607Z,2.17
2018-09-28T05:43:32.094Z,1.90
2018-09-28T05:46:00.633Z,1.67
2018-09-28T05:48:29.142Z,1.97
2018-09-28T05:50:57.722Z,2.30
2018-09-28T05:53:26.299Z,2.60
2018-09-28T05:55:54.781Z,1.80
2018-09-28T05:58:28.580Z,2.83
2018-09-28T06:01:02.405Z,2.03
2018-09-28T06:03:30.945Z,2.57
2018-09-28T06:06:01.996Z,2.30
2018-09-28T06:08:30.681Z,2.77
2018-09-28T06:10:59.185Z,2.50
2018-09-28T06:13:27.730Z,2.03
2018-09-28T06:15:56.256Z,2.17
2018-09-28T06:18:24.899Z,1.97
2018-09-28T06:20:53.454Z,2.87
2018-09-28T06:23:21.977Z,2.20
2018-09-28T06:25:50.526Z,1.77
2018-09-28T06:28:19.023Z,2.20
2018-09-28T06:30:47.593Z,2.40
2018-09-28T06:33:16.140Z,2.27
2018-09-28T06:35:44.992Z,3.03
2018-09-28T06:38:13.702Z,2.23
2018-09-28T06:40:42.223Z,2.60
2018-09-28T06:43:10.742Z,2.23
2018-09-28T06:45:39.233Z,1.87
2018-09-28T06:48:07.860Z,2.80
2018-09-28T06:50:36.346Z,3.70
2018-09-28T06:53:04.893Z,2.97
2018-09-28T06:55:33.450Z,2.43
2018-09-28T06:58:02.160Z,2.97
2018-09-28T07:00:30.738Z,2.27
2018-09-28T07:02:59.539Z,3.20
2018-09-28T07:05:28.030Z,2.90
2018-09-28T07:07:56.531Z,3.07
2018-09-28T07:10:25.116Z,2.53
2018-09-28T07:12:53.652Z,2.33
2018-09-28T07:15:22.230Z,2.27
2018-09-28T07:17:50.807Z,2.40
2018-09-28T07:20:19.288Z,4.40
2018-09-28T07:22:47.802Z,2.13
2018-09-28T07:25:16.406Z,2.50
2018-09-28T07:27:45.239Z,2.77
2018-09-28T07:30:13.832Z,2.30
2018-09-28T07:32:42.355Z,2.13
2018-09-28T07:35:10.870Z,2.00
2018-09-28T07:37:39.470Z,2.10
2018-09-28T07:40:08.011Z,2.80
2018-09-28T07:42:36.524Z,2.13
2018-09-28T07:45:05.103Z,2.33
2018-09-28T07:47:33.635Z,3.53
2018-09-28T07:50:02.147Z,2.10
2018-09-28T07:52:30.702Z,2.63
2018-09-28T07:54:59.195Z,2.40
2018-09-28T07:57:27.723Z,3.00
2018-09-28T07:59:56.214Z,1.63
2018-09-28T08:02:24.682Z,2.90
2018-09-28T08:04:53.581Z,2.27
2018-09-28T08:07:22.117Z,2.83
2018-09-28T08:09:50.703Z,2.57
2018-09-28T08:12:19.321Z,1.50
2018-09-28T08:14:47.833Z,2.37
2018-09-28T08:17:16.345Z,2.70
2018-09-28T08:19:44.840Z,2.10
2018-09-28T08:22:13.426Z,2.47
2018-09-28T08:24:42.047Z,1.57
2018-09-28T08:27:10.540Z,2.30
2018-09-28T08:29:39.088Z,1.37
2018-09-28T08:32:07.990Z,2.20
2018-09-28T08:34:36.538Z,2.43
2018-09-28T08:37:05.084Z,1.37
2018-09-28T08:39:33.865Z,2.27
2018-09-28T08:42:02.404Z,3.27
2018-09-28T08:44:30.955Z,2.23
2018-09-28T08:46:59.542Z,3.43
2018-09-28T08:49:28.101Z,1.93
2018-09-28T08:51:57.083Z,1.50
2018-09-28T08:54:25.631Z,1.70
2018-09-28T08:56:54.226Z,1.67
2018-09-28T08:59:22.766Z,1.30
2018-09-28T09:01:51.646Z,1.60
2018-09-28T09:04:20.192Z,1.30
2018-09-28T09:06:48.731Z,1.40
2018-09-28T09:09:17.260Z,2.30
2018-09-28T09:11:45.812Z,2.50
2018-09-28T09:14:14.406Z,1.77
2018-09-28T09:16:42.952Z,1.40
2018-09-28T09:19:11.747Z,1.50
2018-09-28T09:21:40.303Z,1.00
2018-09-28T09:24:08.853Z,1.40
2018-09-28T09:26:37.399Z,2.13
2018-09-28T09:29:05.937Z,1.87
2018-09-28T09:31:34.484Z,2.13
2018-09-28T09:34:03.034Z,1.97
2018-09-28T09:36:31.560Z,1.00
2018-09-28T09:39:00.106Z,1.00
2018-09-28T09:41:28.656Z,1.70
2018-09-28T09:43:57.174Z,1.50
2018-09-28T09:46:25.707Z,1.50
2018-09-28T09:48:54.205Z,2.03
2018-09-28T09:51:22.725Z,1.60
2018-09-28T09:53:51.276Z,1.77
2018-09-28T09:56:19.787Z,2.07
2018-09-28T09:58:48.278Z,1.73
2018-09-28T10:01:22.181Z,2.03
2018-09-28T10:03:51.656Z,1.80
2018-09-28T10:06:20.330Z,1.63
2018-09-28T10:08:49.730Z,1.37
2018-09-28T10:11:18.304Z,1.80
2018-09-28T10:13:46.879Z,1.80
2018-09-28T10:16:15.382Z,2.17
2018-09-28T10:18:44.459Z,1.80
2018-09-28T10:21:13.063Z,1.97
2018-09-28T10:23:41.562Z,1.73
2018-09-28T10:26:10.111Z,2.03
2018-09-28T10:28:38.747Z,1.47
2018-09-28T10:31:07.296Z,1.30
2018-09-28T10:33:35.897Z,1.53
2018-09-28T10:36:04.357Z,1.30
2018-09-28T10:38:32.907Z,1.20
2018-09-28T10:41:01.542Z,1.33
2018-09-28T10:43:30.055Z,1.80
2018-09-28T10:45:58.579Z,1.87
2018-09-28T10:48:27.086Z,1.20
2018-09-28T10:50:55.668Z,1.47
2018-09-28T10:53:24.179Z,1.50
2018-09-28T10:55:52.679Z,1.00
2018-09-28T10:58:21.242Z,1.40
2018-09-28T11:00:49.857Z,1.43
2018-09-28T11:03:18.478Z,1.10
2018-09-28T11:05:46.984Z,1.10
2018-09-28T11:08:15.586Z,1.27
2018-09-28T11:10:44.208Z,1.83
2018-09-28T11:13:12.826Z,1.20
2018-09-28T11:15:41.421Z,1.50
2018-09-28T11:18:09.914Z,0.90
2018-09-28T11:20:38.430Z,1.40
2018-09-28T11:23:07.007Z,1.23
2018-09-28T11:25:35.570Z,1.17
2018-09-28T11:28:04.099Z,2.87
2018-09-28T11:30:32.623Z,1.43
2018-09-28T11:33:01.302Z,1.50
2018-09-28T11:35:29.826Z,1.60
2018-09-28T11:37:58.341Z,1.33
2018-09-28T11:40:26.833Z,1.20
2018-09-28T11:42:55.356Z,1.07
2018-09-28T11:45:23.900Z,1.20
2018-09-28T11:47:52.422Z,1.40
2018-09-28T11:50:20.934Z,1.17
2018-09-28T11:52:49.725Z,1.50
2018-09-28T11:55:18.268Z,0.80
2018-09-28T11:57:46.819Z,1.67
2018-09-28T12:00:15.328Z,1.30
2018-09-28T12:02:43.825Z,1.27
2018-09-28T12:05:12.454Z,1.00
2018-09-28T12:07:40.963Z,1.57
2018-09-28T12:10:09.552Z,1.27
2018-09-28T12:12:38.094Z,1.03
2018-09-28T12:15:06.753Z,1.20
2018-09-28T12:17:35.221Z,2.60
2018-09-28T12:20:03.950Z,3.37
2018-09-28T12:22:32.454Z,1.30
2018-09-28T12:25:00.966Z,1.47
2018-09-28T12:27:29.485Z,1.60
2018-09-28T12:29:58.263Z,1.30
2018-09-28T12:32:26.791Z,1.70
2018-09-28T12:34:55.270Z,1.77
2018-09-28T12:37:23.810Z,1.00
2018-09-28T12:39:52.480Z,3.40
2018-09-28T12:42:20.977Z,1.27
2018-09-28T12:44:49.585Z,1.40
2018-09-28T12:47:24.340Z,1.43
2018-09-28T12:49:52.851Z,1.00
2018-09-28T12:52:21.415Z,1.20
2018-09-28T12:54:50.110Z,0.70
2018-09-28T12:57:18.601Z,1.10
2018-09-28T12:59:47.103Z,1.00
2018-09-28T13:02:15.657Z,1.17
2018-09-28T13:04:44.185Z,1.17
2018-09-28T13:07:12.784Z,0.80
2018-09-28T13:09:41.305Z,1.57
2018-09-28T13:12:09.976Z,1.07
2018-09-28T13:14:38.554Z,1.30
2018-09-28T13:17:07.152Z,1.00
2018-09-28T13:19:35.698Z,1.27
2018-09-28T13:22:04.213Z,1.00
2018-09-28T13:24:32.759Z,1.47
2018-09-28T13:27:01.334Z,1.83
2018-09-28T13:29:29.862Z,1.50
2018-09-28T13:31:58.379Z,1.00
2018-09-28T13:34:26.914Z,1.00
2018-09-28T13:36:55.481Z,0.90
2018-09-28T13:39:24.066Z,2.07
2018-09-28T13:41:52.555Z,1.20
2018-09-28T13:44:21.136Z,1.17
2018-09-28T13:46:49.866Z,1.40
2018-09-28T13:49:18.359Z,1.43
2018-09-28T13:51:46.975Z,1.10
2018-09-28T13:54:16.311Z,1.07
2018-09-28T13:56:44.908Z,1.00
2018-09-28T13:59:14.714Z,1.00
2018-09-28T14:01:43.324Z,1.43
2018-09-28T14:04:11.822Z,0.60
2018-09-28T14:06:40.398Z,0.97
2018-09-28T14:09:09.926Z,0.90
2018-09-28T14:11:38.669Z,0.90
2018-09-28T14:14:07.324Z,0.90
2018-09-28T14:16:37.227Z,0.83
2018-09-28T14:19:05.815Z,1.30
2018-09-28T14:21:34.623Z,1.20
2018-09-28T14:24:03.216Z,1.60
2018-09-28T14:26:31.749Z,1.33
2018-09-28T14:29:00.299Z,1.10
2018-09-28T14:31:29.502Z,1.17
2018-09-28T14:33:58.080Z,1.30
2018-09-28T14:36:26.679Z,1.83
2018-09-28T14:38:55.226Z,1.10
2018-09-28T14:41:23.740Z,1.33
2018-09-28T14:43:52.269Z,1.30
2018-09-28T14:46:20.863Z,1.67
2018-09-28T14:48:49.572Z,1.07
2018-09-28T14:51:18.265Z,1.30
2018-09-28T14:53:47.530Z,0.90
2018-09-28T14:56:16.902Z,1.40
2018-09-28T14:58:46.234Z,1.60
2018-09-28T15:01:15.526Z,1.23
2018-09-28T15:03:44.042Z,1.40
2018-09-28T15:06:12.597Z,1.17
2018-09-28T15:08:41.276Z,1.40
2018-09-28T15:11:09.762Z,1.83
2018-09-28T15:13:38.352Z,2.67
2018-09-28T15:16:07.357Z,1.20
2018-09-28T15:18:37.217Z,1.27
2018-09-28T15:21:05.991Z,1.57
2018-09-28T15:23:34.766Z,1.13
2018-09-28T15:26:03.434Z,1.47
2018-09-28T15:28:32.091Z,0.87
2018-09-28T15:31:01.775Z,1.13
2018-09-28T15:33:33.074Z,0.83
2018-09-28T15:36:02.425Z,1.40
2018-09-28T15:38:30.935Z,2.37
2018-09-28T15:40:59.569Z,1.40
2018-09-28T15:43:28.100Z,1.40
2018-09-28T15:45:57.569Z,2.20
2018-09-28T15:48:26.064Z,1.60
2018-09-28T15:50:55.275Z,2.87
2018-09-28T15:53:23.782Z,1.57
2018-09-28T15:55:52.314Z,1.47
2018-09-28T15:58:21.081Z,1.93
2018-09-28T16:00:49.770Z,1.60
2018-09-28T16:03:18.286Z,1.50
2018-09-28T16:05:47.610Z,1.73
2018-09-28T16:08:16.102Z,1.37
2018-09-28T16:10:44.634Z,1.13
2018-09-28T16:13:13.174Z,1.13
2018-09-28T16:15:41.693Z,1.20
2018-09-28T16:18:11.459Z,2.13
2018-09-28T16:20:40.769Z,2.30
2018-09-28T16:23:09.269Z,1.03
2018-09-28T16:25:37.757Z,1.50
2018-09-28T16:28:06.279Z,1.67
2018-09-28T16:30:34.813Z,1.70
2018-09-28T16:33:03.321Z,1.90
2018-09-28T16:35:32.083Z,3.63
2018-09-28T16:38:00.505Z,1.90
2018-09-28T16:40:29.087Z,2.00
2018-09-28T16:42:57.603Z,2.60
2018-09-28T16:45:26.205Z,1.67
2018-09-28T16:47:56.234Z,1.70
2018-09-28T16:50:24.865Z,1.73
2018-09-28T16:52:53.581Z,2.10
2018-09-28T16:55:22.281Z,2.00
2018-09-28T16:57:50.956Z,2.57
2018-09-28T17:00:19.454Z,2.07
2018-09-28T17:02:48.019Z,1.60
2018-09-28T17:05:16.502Z,2.13
2018-09-28T17:07:45.018Z,1.23
2018-09-28T17:10:13.522Z,2.03
2018-09-28T17:12:42.009Z,1.27
2018-09-28T17:15:10.629Z,1.17
2018-09-28T17:17:39.249Z,1.77
2018-09-28T17:20:07.899Z,1.60
2018-09-28T17:22:36.504Z,1.73
2018-09-28T17:25:05.005Z,2.00
2018-09-28T17:27:33.578Z,2.00
2018-09-28T17:34:52.151Z,1.40
2018-09-28T17:37:20.735Z,1.57
2018-09-28T17:39:49.284Z,2.00
2018-09-28T17:42:17.765Z,1.80
2018-09-28T17:44:47.077Z,1.30
2018-09-28T17:47:15.681Z,1.90
2018-09-28T17:49:44.203Z,1.67
2018-09-28T17:52:12.660Z,1.37
2018-09-28T17:54:41.261Z,1.57
2018-09-28T17:57:09.798Z,1.53
2018-09-28T17:59:38.290Z,2.10
2018-09-28T18:02:12.376Z,1.67
2018-09-28T18:04:41.690Z,1.50
2018-09-28T18:07:10.193Z,1.53
2018-09-28T18:09:38.715Z,1.20
2018-09-28T18:12:06.196Z,2.00
2018-09-28T18:14:34.723Z,1.13
2018-09-28T18:17:03.274Z,1.80
2018-09-28T18:19:31.838Z,2.20
2018-09-28T18:22:00.442Z,1.50
2018-09-28T18:24:29.004Z,1.80
2018-09-28T18:26:57.569Z,2.07
2018-09-28T18:29:27.191Z,1.93
2018-09-28T18:31:55.686Z,1.30
2018-09-28T18:34:24.284Z,1.70
2018-09-28T18:36:52.814Z,1.60
2018-09-28T18:39:21.406Z,1.70
2018-09-28T18:41:50.623Z,1.50
2018-09-28T18:44:19.085Z,1.57
2018-09-28T18:46:47.565Z,1.20
2018-09-28T18:49:16.402Z,1.93
2018-09-28T18:51:44.916Z,1.27
2018-09-28T18:54:13.410Z,1.80
2018-09-28T18:56:41.978Z,1.80
2018-09-28T18:59:11.335Z,1.40
2018-09-28T19:01:39.885Z,3.20
2018-09-28T19:04:10.311Z,1.40
2018-09-28T19:06:38.854Z,2.10
2018-09-28T19:09:09.473Z,1.70
2018-09-28T19:11:38.311Z,2.10
2018-09-28T19:14:06.825Z,2.37
2018-09-28T19:16:35.330Z,1.70
2018-09-28T19:19:03.873Z,1.40
2018-09-28T19:21:32.524Z,1.77
2018-09-28T19:24:01.177Z,1.80
2018-09-28T19:26:29.702Z,2.20
2018-09-28T19:28:58.738Z,2.13
2018-09-28T19:31:27.289Z,2.50
2018-09-28T19:33:56.585Z,2.23
2018-09-28T19:36:25.859Z,2.50
2018-09-28T19:38:54.561Z,2.50
2018-09-28T19:41:23.103Z,2.63
2018-09-28T19:43:52.626Z,2.33
2018-09-28T19:46:21.222Z,2.40
2018-09-28T19:48:49.739Z,3.83
2018-09-28T19:51:18.441Z,4.50
2018-09-28T19:53:47.141Z,3.20
2018-09-28T19:56:15.668Z,2.50
2018-09-28T19:58:44.581Z,3.70
2018-09-28T20:01:13.163Z,2.70
2018-09-28T20:03:41.689Z,3.47
2018-09-28T20:06:10.381Z,3.00
2018-09-28T20:08:38.954Z,2.87
2018-09-28T20:11:07.505Z,4.60
2018-09-28T20:13:35.990Z,3.30
2018-09-28T20:16:04.476Z,2.90
2018-09-28T20:18:33.349Z,3.07
2018-09-28T20:21:01.967Z,3.33
2018-09-28T20:23:30.633Z,3.20
2018-09-28T20:25:59.166Z,3.27
2018-09-28T20:28:27.670Z,3.23
2018-09-28T20:30:56.237Z,2.57
2018-09-28T20:33:24.821Z,3.03
2018-09-28T20:35:53.400Z,3.47
2018-09-28T20:38:22.057Z,3.43
2018-09-28T20:40:50.602Z,2.20
2018-09-28T20:43:19.173Z,2.70
2018-09-28T20:45:47.647Z,2.70
2018-09-28T20:48:16.255Z,2.90
2018-09-28T20:50:44.714Z,2.87
2018-09-28T20:53:13.296Z,2.43
2018-09-28T20:55:41.871Z,3.90
2018-09-28T20:58:10.311Z,2.90
2018-09-28T21:00:39.046Z,2.90
2018-09-28T21:03:07.613Z,3.17
2018-09-28T21:05:36.666Z,3.20
2018-09-28T21:08:05.179Z,3.53
2018-09-28T21:10:33.734Z,2.80
2018-09-28T21:13:02.270Z,4.57
2018-09-28T21:15:31.105Z,5.20
2018-09-28T21:17:59.585Z,4.63
2018-09-28T21:20:28.067Z,4.80
2018-09-28T21:22:56.625Z,5.97
2018-09-28T21:25:25.545Z,6.07
2018-09-28T21:27:54.029Z,4.63
2018-09-28T21:30:22.556Z,6.07
2018-09-28T21:32:51.091Z,5.57
2018-09-28T21:35:19.588Z,5.53
2018-09-28T21:37:48.122Z,4.97
2018-09-28T21:40:16.927Z,4.33
2018-09-28T21:42:45.733Z,4.53
2018-09-28T21:45:14.205Z,3.00
2018-09-28T21:47:42.757Z,5.60
2018-09-28T21:50:11.921Z,3.37
2018-09-28T21:52:40.378Z,3.60
2018-09-28T21:55:08.938Z,3.60
2018-09-28T21:57:38.645Z,2.83
2018-09-28T22:00:07.833Z,3.60
2018-09-28T22:02:36.589Z,3.33
2018-09-28T22:05:05.241Z,2.87
2018-09-28T22:07:33.778Z,2.33
2018-09-28T22:10:02.331Z,1.93
2018-09-28T22:12:30.798Z,2.30
2018-09-28T22:14:59.342Z,2.50
2018-09-28T22:17:27.896Z,3.57
2018-09-28T22:19:56.462Z,3.80
2018-09-28T22:22:24.951Z,2.37
2018-09-28T22:24:53.443Z,2.50
2018-09-28T22:27:22.444Z,2.80
2018-09-28T22:29:50.983Z,2.70
2018-09-28T22:32:20.266Z,2.13
2018-09-28T22:34:48.766Z,2.10
2018-09-28T22:37:17.766Z,2.00
2018-09-28T22:39:46.265Z,2.47
2018-09-28T22:42:14.813Z,2.10
2018-09-28T22:44:43.377Z,2.07
2018-09-28T22:47:11.926Z,2.43
2018-09-28T22:49:40.401Z,2.80
2018-09-28T22:52:08.893Z,2.40
2018-09-28T22:54:38.561Z,1.87
2018-09-28T22:57:10.021Z,2.07
2018-09-28T22:59:38.561Z,2.10
2018-09-28T23:02:07.110Z,2.30
2018-09-28T23:04:35.617Z,2.13
2018-09-28T23:07:04.141Z,2.07
2018-09-28T23:09:32.629Z,1.90
2018-09-28T23:12:01.222Z,2.13
2018-09-28T23:14:29.713Z,2.27
2018-09-28T23:16:58.235Z,2.03
2018-09-28T23:19:26.816Z,2.17
2018-09-28T23:21:55.318Z,2.23
2018-09-28T23:24:23.905Z,2.10
2018-09-28T23:26:52.404Z,2.10
2018-09-28T23:29:21.158Z,2.40
2018-09-28T23:31:49.651Z,2.20
2018-09-28T23:34:18.242Z,2.40
2018-09-28T23:36:46.834Z,1.40
2018-09-28T23:39:15.917Z,1.57
2018-09-28T23:41:45.119Z,2.50
2018-09-28T23:44:13.639Z,1.87
2018-09-28T23:46:42.194Z,1.40
2018-09-28T23:49:10.669Z,2.10
2018-09-28T23:51:39.194Z,1.80
2018-09-28T23:54:07.665Z,2.30
2018-09-28T23:56:36.770Z,2.00
2018-09-28T23:59:06.062Z,2.03
